createdAt,value
2022-10-02T00:02:23.614Z,8.10
2022-10-02T00:05:02.730Z,8.10
2022-10-02T00:07:46.102Z,8.10
2022-10-02T00:10:23.049Z,8.10
2022-10-02T00:12:55.492Z,8.10
2022-10-02T00:15:32.186Z,8.10
2022-10-02T00:18:09.568Z,8.00
2022-10-02T00:21:22.417Z,8.00
2022-10-02T00:23:58.614Z,7.90
2022-10-02T00:26:34.910Z,8.00
2022-10-02T00:29:16.877Z,7.90
2022-10-02T00:32:16.951Z,7.90
2022-10-02T00:35:20.139Z,7.90
2022-10-02T00:38:11.743Z,7.90
2022-10-02T00:40:59.761Z,7.90
2022-10-02T00:43:33.116Z,7.90
2022-10-02T00:46:26.808Z,7.80
2022-10-02T00:49:02.619Z,7.80
2022-10-02T00:51:41.993Z,7.80
2022-10-02T00:54:50.296Z,7.80
2022-10-02T00:57:54.347Z,7.80
2022-10-02T01:00:21.477Z,7.70
2022-10-02T01:03:13.180Z,7.70
2022-10-02T01:05:40.253Z,7.70
2022-10-02T01:08:08.580Z,7.70
2022-10-02T01:10:38.185Z,7.70
2022-10-02T01:13:06.915Z,7.60
2022-10-02T01:15:40.541Z,7.60
2022-10-02T01:18:09.900Z,7.60
2022-10-02T01:20:41.875Z,7.60
2022-10-02T01:23:35.370Z,7.60
2022-10-02T01:26:02.515Z,7.60
2022-10-02T01:28:30.186Z,7.60
2022-10-02T01:31:02.953Z,7.60
2022-10-02T01:33:31.776Z,7.60
2022-10-02T01:35:59.252Z,7.60
2022-10-02T01:38:27.910Z,7.60
2022-10-02T01:40:54.885Z,7.60
2022-10-02T01:43:32.126Z,7.60
2022-10-02T01:46:14.646Z,7.60
2022-10-02T01:49:10.688Z,7.60
2022-10-02T01:52:00.488Z,7.50
2022-10-02T01:54:47.525Z,7.50
2022-10-02T01:57:44.193Z,7.50
2022-10-02T02:00:20.179Z,7.50
2022-10-02T02:02:56.407Z,7.40
2022-10-02T02:05:32.149Z,7.50
2022-10-02T02:08:03.950Z,7.40
2022-10-02T02:10:52.748Z,7.40
2022-10-02T02:13:38.447Z,7.40
2022-10-02T02:16:13.990Z,7.40
2022-10-02T02:18:48.214Z,7.30
2022-10-02T02:21:27.675Z,7.30
2022-10-02T02:23:57.885Z,7.30
2022-10-02T02:26:27.186Z,7.30
2022-10-02T02:29:07.331Z,7.30
2022-10-02T02:31:47.496Z,7.30
2022-10-02T02:34:20.174Z,7.30
2022-10-02T02:36:52.628Z,7.20
2022-10-02T02:39:34.103Z,7.20
2022-10-02T02:42:05.277Z,7.30
2022-10-02T02:44:38.509Z,7.30
2022-10-02T02:47:18.352Z,7.30
2022-10-02T02:50:02.957Z,7.30
2022-10-02T02:52:39.349Z,7.30
2022-10-02T02:55:19.913Z,7.30
2022-10-02T02:58:13.122Z,7.30
2022-10-02T03:00:40.433Z,7.30
2022-10-02T03:03:07.509Z,7.30
2022-10-02T03:05:38.071Z,7.30
2022-10-02T03:08:12.944Z,7.30
2022-10-02T03:10:51.848Z,7.30
2022-10-02T03:13:44.829Z,7.30
2022-10-02T03:16:36.364Z,7.30
2022-10-02T03:19:42.314Z,7.30
2022-10-02T03:22:45.023Z,7.30
2022-10-02T03:25:34.130Z,7.30
2022-10-02T03:28:07.708Z,7.30
2022-10-02T03:30:36.832Z,7.30
2022-10-02T03:33:05.859Z,7.30
2022-10-02T03:35:33.833Z,7.40
2022-10-02T03:38:05.201Z,7.40
2022-10-02T03:40:32.412Z,7.40
2022-10-02T03:42:59.492Z,7.40
2022-10-02T03:45:46.592Z,7.40
2022-10-02T03:48:14.991Z,7.40
2022-10-02T03:50:42.067Z,7.40
2022-10-02T03:53:16.710Z,7.40
2022-10-02T03:56:03.279Z,7.40
2022-10-02T03:58:30.421Z,7.40
2022-10-02T04:01:03.016Z,7.50
2022-10-02T04:03:38.691Z,7.40
2022-10-02T04:06:28.789Z,7.50
2022-10-02T04:09:06.720Z,7.50
2022-10-02T04:11:48.545Z,7.50
2022-10-02T04:14:21.121Z,7.40
2022-10-02T04:16:58.803Z,7.40
2022-10-02T04:19:43.779Z,7.40
2022-10-02T04:22:48.219Z,7.40
2022-10-02T04:25:19.864Z,7.50
2022-10-02T04:28:08.045Z,7.50
2022-10-02T04:30:35.179Z,7.50
2022-10-02T04:33:12.792Z,7.50
2022-10-02T04:35:49.966Z,7.50
2022-10-02T04:38:32.326Z,7.50
2022-10-02T04:41:34.336Z,7.50
2022-10-02T04:44:09.929Z,7.50
2022-10-02T04:47:11.313Z,7.40
2022-10-02T04:49:43.816Z,7.40
2022-10-02T04:52:46.615Z,7.50
2022-10-02T04:55:57.460Z,7.50
2022-10-02T04:59:02.144Z,7.50
2022-10-02T05:01:43.785Z,7.50
2022-10-02T05:04:38.210Z,7.50
2022-10-02T05:07:19.946Z,7.50
2022-10-02T05:09:52.801Z,7.50
2022-10-02T05:12:56.270Z,7.50
2022-10-02T05:15:48.374Z,7.50
2022-10-02T05:18:45.943Z,7.50
2022-10-02T05:21:18.783Z,7.50
2022-10-02T05:24:03.571Z,7.50
2022-10-02T05:26:58.660Z,7.60
2022-10-02T05:29:31.681Z,7.60
2022-10-02T05:32:06.440Z,7.70
2022-10-02T05:34:48.419Z,7.70
2022-10-02T05:37:18.359Z,7.70
2022-10-02T05:40:20.770Z,7.70
2022-10-02T05:42:53.965Z,7.70
2022-10-02T05:45:34.841Z,7.70
2022-10-02T05:48:07.971Z,7.80
2022-10-02T05:50:38.154Z,7.70
2022-10-02T05:53:21.222Z,7.80
2022-10-02T05:56:37.543Z,7.80
2022-10-02T05:59:07.685Z,7.80
2022-10-02T06:01:42.224Z,7.90
2022-10-02T06:04:18.937Z,7.90
2022-10-02T06:06:54.263Z,8.00
2022-10-02T06:09:29.687Z,8.00
2022-10-02T06:11:59.917Z,8.10
2022-10-02T06:14:36.671Z,8.10
2022-10-02T06:17:11.917Z,8.10
2022-10-02T06:20:03.932Z,8.20
2022-10-02T06:22:42.217Z,8.30
2022-10-02T06:25:22.493Z,8.30
2022-10-02T06:27:57.789Z,8.40
2022-10-02T06:30:24.831Z,8.40
2022-10-02T06:33:20.061Z,8.50
2022-10-02T06:36:01.880Z,8.50
2022-10-02T06:38:57.927Z,8.70
2022-10-02T06:41:54.304Z,8.80
2022-10-02T06:44:51.618Z,8.90
2022-10-02T06:47:22.278Z,8.90
2022-10-02T06:49:59.603Z,9.00
2022-10-02T06:52:41.614Z,9.00
2022-10-02T06:55:21.038Z,9.00
2022-10-02T06:58:06.617Z,9.10
2022-10-02T07:00:45.858Z,9.10
2022-10-02T07:03:23.074Z,9.20
2022-10-02T07:06:24.747Z,9.30
2022-10-02T07:09:25.319Z,9.30
2022-10-02T07:12:14.982Z,9.50
2022-10-02T07:15:10.196Z,9.50
2022-10-02T07:18:05.058Z,9.70
2022-10-02T07:20:50.621Z,9.80
2022-10-02T07:23:35.779Z,9.90
2022-10-02T07:26:23.622Z,10.10
2022-10-02T07:29:09.441Z,10.30
2022-10-02T07:32:12.333Z,10.40
2022-10-02T07:34:48.316Z,10.50
2022-10-02T07:37:18.299Z,10.60
2022-10-02T07:39:55.940Z,10.70
2022-10-02T07:42:53.263Z,10.70
2022-10-02T07:45:55.186Z,10.90
2022-10-02T07:48:44.818Z,11.00
2022-10-02T07:51:47.162Z,11.00
2022-10-02T07:54:20.157Z,10.90
2022-10-02T07:56:49.306Z,10.90
2022-10-02T07:59:18.836Z,10.90
2022-10-02T08:01:47.900Z,10.80
2022-10-02T08:04:37.304Z,10.60
2022-10-02T08:07:06.594Z,10.60
2022-10-02T08:09:49.034Z,10.50
2022-10-02T08:12:34.532Z,10.50
2022-10-02T08:15:02.607Z,10.50
2022-10-02T08:17:43.306Z,10.60
2022-10-02T08:20:25.356Z,10.70
2022-10-02T08:23:13.449Z,10.90
2022-10-02T08:25:52.779Z,11.10
2022-10-02T08:28:47.483Z,11.30
2022-10-02T08:31:15.065Z,11.30
2022-10-02T08:33:43.391Z,11.40
2022-10-02T08:36:40.777Z,11.40
2022-10-02T08:39:13.382Z,11.40
2022-10-02T08:41:46.373Z,11.40
2022-10-02T08:44:25.015Z,11.40
2022-10-02T08:47:33.256Z,11.40
2022-10-02T08:50:31.145Z,11.40
2022-10-02T08:53:08.481Z,11.60
2022-10-02T08:55:54.509Z,11.70
2022-10-02T08:58:59.634Z,11.80
2022-10-02T09:01:29.516Z,12.00
2022-10-02T09:04:20.977Z,12.40
2022-10-02T09:07:17.690Z,12.70
2022-10-02T09:10:13.703Z,12.90
2022-10-02T09:12:58.423Z,13.10
2022-10-02T09:15:48.266Z,13.20
2022-10-02T09:18:27.958Z,13.40
2022-10-02T09:21:37.792Z,13.70
2022-10-02T09:24:22.570Z,14.00
2022-10-02T09:27:22.789Z,14.40
2022-10-02T09:29:55.880Z,14.60
2022-10-02T09:32:59.150Z,14.60
2022-10-02T09:36:12.057Z,14.60
2022-10-02T09:39:16.388Z,14.50
2022-10-02T09:41:55.536Z,14.30
2022-10-02T09:44:38.818Z,14.30
2022-10-02T09:47:27.333Z,14.20
2022-10-02T09:50:38.914Z,14.00
2022-10-02T09:53:44.641Z,13.90
2022-10-02T09:56:14.563Z,13.80
2022-10-02T09:58:44.173Z,13.90
2022-10-02T10:02:00.222Z,14.00
2022-10-02T10:05:08.827Z,14.00
2022-10-02T10:07:59.073Z,14.10
2022-10-02T10:10:31.702Z,14.10
2022-10-02T10:13:32.397Z,14.20
2022-10-02T10:16:19.230Z,14.10
2022-10-02T10:19:08.719Z,14.20
2022-10-02T10:21:41.648Z,14.10
2022-10-02T10:24:45.964Z,14.20
2022-10-02T10:27:22.101Z,14.10
2022-10-02T10:30:16.699Z,14.00
2022-10-02T10:33:03.808Z,13.90
2022-10-02T10:36:08.014Z,13.70
2022-10-02T10:38:53.066Z,13.60
2022-10-02T10:41:30.741Z,13.50
2022-10-02T10:44:49.786Z,13.50
2022-10-02T10:47:20.370Z,13.60
2022-10-02T10:50:35.882Z,13.70
2022-10-02T10:53:17.836Z,13.70
2022-10-02T10:55:50.831Z,13.60
2022-10-02T10:58:57.561Z,13.60
2022-10-02T11:01:42.514Z,13.70
2022-10-02T11:05:00.775Z,13.80
2022-10-02T11:07:50.586Z,14.00
2022-10-02T11:10:28.002Z,14.10
2022-10-02T11:13:01.803Z,14.20
2022-10-02T11:15:48.150Z,14.30
2022-10-02T11:19:09.174Z,14.50
2022-10-02T11:21:48.123Z,14.50
2022-10-02T11:24:53.413Z,14.30
2022-10-02T11:27:49.644Z,14.10
2022-10-02T11:30:41.441Z,13.90
2022-10-02T11:33:38.303Z,13.70
2022-10-02T11:36:42.694Z,13.70
2022-10-02T11:39:38.722Z,14.10
2022-10-02T11:42:34.123Z,14.40
2022-10-02T11:45:34.796Z,14.40
2022-10-02T11:48:22.279Z,14.30
2022-10-02T11:51:03.419Z,14.20
2022-10-02T11:53:51.151Z,14.20
2022-10-02T11:56:21.290Z,14.30
2022-10-02T11:59:10.079Z,14.30
2022-10-02T12:02:06.142Z,14.20
2022-10-02T12:04:52.634Z,14.10
2022-10-02T12:07:35.905Z,14.00
2022-10-02T12:10:17.883Z,14.00
2022-10-02T12:13:19.342Z,13.90
2022-10-02T12:16:03.792Z,13.90
2022-10-02T12:18:59.294Z,13.80
2022-10-02T12:22:18.166Z,13.80
2022-10-02T12:25:12.259Z,13.80
2022-10-02T12:28:00.784Z,13.90
2022-10-02T12:30:42.779Z,14.00
2022-10-02T12:33:16.360Z,14.00
2022-10-02T12:36:05.442Z,14.00
2022-10-02T12:38:58.649Z,13.90
2022-10-02T12:41:34.143Z,13.90
2022-10-02T12:44:51.595Z,13.90
2022-10-02T12:47:37.077Z,13.90
2022-10-02T12:50:28.196Z,13.80
2022-10-02T12:53:22.341Z,13.80
2022-10-02T12:56:07.130Z,13.70
2022-10-02T12:58:54.271Z,13.70
2022-10-02T13:01:40.195Z,13.70
2022-10-02T13:04:17.211Z,13.70
2022-10-02T13:07:05.442Z,13.60
2022-10-02T13:09:51.387Z,13.50
2022-10-02T13:12:39.682Z,13.50
2022-10-02T13:15:35.881Z,13.50
2022-10-02T13:18:12.902Z,13.50
2022-10-02T13:20:48.149Z,13.40
2022-10-02T13:23:25.159Z,13.30
2022-10-02T13:26:29.897Z,13.20
2022-10-02T13:29:19.301Z,13.10
2022-10-02T13:31:58.235Z,13.00
2022-10-02T13:34:39.169Z,12.90
2022-10-02T13:37:23.908Z,12.70
2022-10-02T13:39:53.548Z,12.50
2022-10-02T13:42:45.637Z,12.40
2022-10-02T13:45:22.426Z,12.30
2022-10-02T13:48:21.277Z,12.30
2022-10-02T13:51:13.190Z,12.20
2022-10-02T13:53:57.977Z,12.10
2022-10-02T13:56:28.889Z,12.10
2022-10-02T13:58:55.652Z,12.00
2022-10-02T14:01:49.842Z,12.00
2022-10-02T14:04:58.132Z,12.10
2022-10-02T14:07:59.642Z,12.20
2022-10-02T14:10:28.421Z,12.40
2022-10-02T14:13:14.913Z,12.60
2022-10-02T14:16:07.471Z,12.80
2022-10-02T14:19:04.912Z,13.00
2022-10-02T14:21:56.148Z,13.10
2022-10-02T14:24:57.515Z,13.10
2022-10-02T14:28:02.408Z,13.20
2022-10-02T14:30:52.502Z,13.20
2022-10-02T14:33:54.292Z,13.30
2022-10-02T14:36:24.303Z,13.30
2022-10-02T14:39:10.040Z,13.40
2022-10-02T14:41:58.918Z,13.30
2022-10-02T14:44:52.246Z,13.40
2022-10-02T14:47:42.434Z,13.40
2022-10-02T14:50:34.241Z,13.40
2022-10-02T14:53:15.518Z,13.30
2022-10-02T14:55:51.372Z,13.10
2022-10-02T14:58:38.363Z,12.90
2022-10-02T15:01:24.100Z,12.80
2022-10-02T15:04:01.150Z,12.60
2022-10-02T15:06:39.968Z,12.50
2022-10-02T15:09:21.732Z,12.30
2022-10-02T15:12:14.904Z,12.10
2022-10-02T15:15:17.376Z,12.00
2022-10-02T15:17:56.734Z,11.90
2022-10-02T15:20:30.048Z,11.70
2022-10-02T15:23:02.201Z,11.70
2022-10-02T15:25:47.019Z,11.60
2022-10-02T15:28:36.266Z,11.50
2022-10-02T15:31:19.314Z,11.40
2022-10-02T15:33:53.289Z,11.30
2022-10-02T15:36:39.846Z,11.20
2022-10-02T15:39:15.735Z,11.00
2022-10-02T15:41:48.565Z,10.80
2022-10-02T15:44:35.711Z,10.70
2022-10-02T15:47:29.753Z,10.50
2022-10-02T15:50:05.743Z,10.30
2022-10-02T15:53:08.415Z,10.20
2022-10-02T15:55:43.168Z,10.00
2022-10-02T15:58:19.118Z,9.80
2022-10-02T16:01:01.241Z,9.70
2022-10-02T16:03:39.899Z,9.50
2022-10-02T16:06:30.096Z,9.40
2022-10-02T16:09:06.154Z,9.30
2022-10-02T16:11:45.134Z,9.10
2022-10-02T16:14:37.631Z,9.00
2022-10-02T16:17:43.804Z,8.90
2022-10-02T16:20:34.574Z,8.70
2022-10-02T16:23:38.431Z,8.60
2022-10-02T16:26:05.384Z,8.50
2022-10-02T16:28:52.537Z,8.30
2022-10-02T16:31:45.749Z,8.30
2022-10-02T16:34:32.898Z,8.20
2022-10-02T16:37:34.583Z,8.10
2022-10-02T16:40:04.195Z,8.00
2022-10-02T16:42:43.071Z,8.00
2022-10-02T16:45:31.224Z,7.90
2022-10-02T16:48:22.007Z,7.90
2022-10-02T16:51:08.779Z,7.80
2022-10-02T16:53:43.301Z,7.80
2022-10-02T16:56:17.532Z,7.70
2022-10-02T16:59:14.506Z,7.70
2022-10-02T17:02:17.684Z,7.60
2022-10-02T17:05:16.582Z,7.60
2022-10-02T17:07:53.083Z,7.50
2022-10-02T17:11:03.529Z,7.40
2022-10-02T17:13:55.839Z,7.30
2022-10-02T17:16:37.277Z,7.30
2022-10-02T17:19:27.485Z,7.30
2022-10-02T17:22:03.463Z,7.30
2022-10-02T17:24:53.781Z,7.30
2022-10-02T17:27:45.780Z,7.30
2022-10-02T17:30:21.115Z,7.30
2022-10-02T17:33:14.152Z,7.40
2022-10-02T17:35:57.231Z,7.50
2022-10-02T17:38:35.903Z,7.60
2022-10-02T17:41:29.025Z,7.70
2022-10-02T17:44:23.584Z,7.70
2022-10-02T17:46:53.358Z,7.80
2022-10-02T17:49:26.329Z,7.90
2022-10-02T17:52:23.868Z,8.00
2022-10-02T17:55:20.172Z,8.00
2022-10-02T17:57:56.657Z,8.00
2022-10-02T18:00:26.230Z,8.00
2022-10-02T18:03:13.825Z,8.10
2022-10-02T18:05:43.494Z,8.10
2022-10-02T18:08:29.812Z,8.20
2022-10-02T18:11:13.001Z,8.30
2022-10-02T18:13:59.574Z,8.30
2022-10-02T18:16:47.845Z,8.30
2022-10-02T18:19:27.891Z,8.30
2022-10-02T18:22:10.797Z,8.40
2022-10-02T18:25:14.493Z,8.40
2022-10-02T18:28:04.233Z,8.50
2022-10-02T18:30:47.480Z,8.60
2022-10-02T18:33:25.307Z,8.50
2022-10-02T18:36:23.922Z,8.50
2022-10-02T18:39:20.126Z,8.60
2022-10-02T18:42:41.082Z,8.70
2022-10-02T18:45:29.686Z,8.60
2022-10-02T18:48:30.724Z,8.60
2022-10-02T18:51:19.186Z,8.70
2022-10-02T18:54:22.830Z,8.70
2022-10-02T18:57:07.929Z,8.70
2022-10-02T19:00:05.086Z,8.70
2022-10-02T19:02:38.759Z,8.70
2022-10-02T19:05:29.527Z,8.70
2022-10-02T19:08:05.436Z,8.70
2022-10-02T19:10:32.419Z,8.70
2022-10-02T19:13:27.259Z,8.60
2022-10-02T19:15:58.752Z,8.60
2022-10-02T19:18:28.213Z,8.60
2022-10-02T19:21:09.057Z,8.60
2022-10-02T19:24:04.785Z,8.60
2022-10-02T19:26:35.914Z,8.60
2022-10-02T19:29:19.712Z,8.60
2022-10-02T19:31:47.252Z,8.70
2022-10-02T19:34:27.967Z,8.70
2022-10-02T19:36:59.518Z,8.60
2022-10-02T19:39:34.267Z,8.60
2022-10-02T19:42:15.695Z,8.60
2022-10-02T19:44:49.003Z,8.50
2022-10-02T19:47:31.949Z,8.50
2022-10-02T19:50:01.698Z,8.50
2022-10-02T19:52:54.079Z,8.50
2022-10-02T19:55:31.719Z,8.50
2022-10-02T19:58:06.563Z,8.50
2022-10-02T20:00:38.678Z,8.40
2022-10-02T20:03:13.475Z,8.40
2022-10-02T20:05:42.245Z,8.40
2022-10-02T20:11:01.986Z,8.30
2022-10-02T20:13:44.707Z,8.20
2022-10-02T20:16:57.358Z,8.30
2022-10-02T20:19:28.005Z,8.20
2022-10-02T20:21:57.804Z,8.10
2022-10-02T20:24:28.876Z,8.00
2022-10-02T20:27:02.315Z,7.90
2022-10-02T20:29:44.603Z,7.90
2022-10-02T20:32:24.004Z,7.80
2022-10-02T20:34:56.764Z,7.70
2022-10-02T20:37:29.661Z,7.60
2022-10-02T20:40:21.470Z,7.60
2022-10-02T20:42:51.468Z,7.60
2022-10-02T20:45:18.865Z,7.50
2022-10-02T20:47:59.438Z,7.40
2022-10-02T20:50:44.304Z,7.30
2022-10-02T20:53:37.499Z,7.20
2022-10-02T20:56:14.218Z,7.10
2022-10-02T20:59:02.974Z,6.90
2022-10-02T21:01:51.379Z,6.90
2022-10-02T21:04:36.872Z,6.70
2022-10-02T21:07:36.290Z,6.70
2022-10-02T21:10:08.090Z,6.70
2022-10-02T21:12:44.704Z,6.60
2022-10-02T21:15:23.888Z,6.70
2022-10-02T21:18:02.794Z,6.70
2022-10-02T21:20:51.221Z,6.60
2022-10-02T21:23:29.435Z,6.60
2022-10-02T21:26:11.719Z,6.60
2022-10-02T21:29:24.341Z,6.50
2022-10-02T21:32:22.901Z,6.40
2022-10-02T21:35:14.251Z,6.30
2022-10-02T21:37:53.763Z,6.30
2022-10-02T21:40:23.602Z,6.20
2022-10-02T21:43:24.337Z,6.20
2022-10-02T21:46:10.140Z,6.10
2022-10-02T21:48:58.460Z,6.10
2022-10-02T21:51:34.312Z,6.00
2022-10-02T21:54:23.118Z,6.00
2022-10-02T21:57:02.733Z,5.90
2022-10-02T21:59:59.701Z,5.90
2022-10-02T22:02:54.732Z,5.80
2022-10-02T22:05:59.378Z,5.80
2022-10-02T22:08:38.999Z,5.80
2022-10-02T22:11:22.904Z,5.80
2022-10-02T22:13:55.056Z,5.80
2022-10-02T22:16:57.782Z,5.80
2022-10-02T22:19:46.542Z,5.70
2022-10-02T22:22:28.544Z,5.70
2022-10-02T22:25:12.669Z,5.60
2022-10-02T22:28:16.882Z,5.60
2022-10-02T22:30:56.740Z,5.50
2022-10-02T22:33:26.745Z,5.50
2022-10-02T22:36:15.410Z,5.40
2022-10-02T22:38:54.502Z,5.40
2022-10-02T22:41:27.004Z,5.30
2022-10-02T22:44:03.824Z,5.30
2022-10-02T22:46:41.367Z,5.30
2022-10-02T22:49:25.572Z,5.30
2022-10-02T22:52:26.180Z,5.20
2022-10-02T22:54:59.763Z,5.20
2022-10-02T22:57:50.015Z,5.10
2022-10-02T23:00:21.787Z,5.00
2022-10-02T23:02:51.682Z,5.00
2022-10-02T23:05:21.741Z,4.90
2022-10-02T23:08:00.838Z,4.90
2022-10-02T23:10:43.755Z,4.80
2022-10-02T23:13:36.449Z,4.80
2022-10-02T23:16:22.605Z,4.80
2022-10-02T23:19:03.233Z,4.80
2022-10-02T23:21:36.251Z,4.80
2022-10-02T23:24:12.265Z,4.80
2022-10-02T23:26:47.442Z,4.80
2022-10-02T23:29:51.955Z,4.80
2022-10-02T23:32:41.655Z,4.80
2022-10-02T23:35:19.275Z,4.80
2022-10-02T23:37:54.930Z,4.80
2022-10-02T23:40:49.444Z,4.80
2022-10-02T23:43:33.228Z,4.80
2022-10-02T23:46:07.085Z,4.70
2022-10-02T23:48:34.279Z,4.70
2022-10-02T23:51:32.052Z,4.60
2022-10-02T23:54:20.449Z,4.50
2022-10-02T23:57:43.933Z,4.50
